createdAt,value
2022-11-29T00:01:32.051Z,7.32
2022-11-29T00:03:59.314Z,7.25
2022-11-29T00:06:31.135Z,7.47
2022-11-29T00:09:01.890Z,7.30
2022-11-29T00:11:51.756Z,7.75
2022-11-29T00:14:19.774Z,7.22
2022-11-29T00:16:50.832Z,8.30
2022-11-29T00:19:17.260Z,7.07
2022-11-29T00:21:43.668Z,9.90
2022-11-29T00:24:10.257Z,7.95
2022-11-29T00:26:37.173Z,9.55
2022-11-29T00:29:03.993Z,8.02
2022-11-29T00:31:32.550Z,6.28
2022-11-29T00:34:01.239Z,9.52
2022-11-29T00:36:28.010Z,10.35
2022-11-29T00:38:54.436Z,7.70
2022-11-29T00:41:21.105Z,8.60
2022-11-29T00:43:47.537Z,8.23
2022-11-29T00:46:14.154Z,10.23
2022-11-29T00:48:40.619Z,9.27
2022-11-29T00:51:07.143Z,9.55
2022-11-29T00:53:34.599Z,10.18
2022-11-29T00:56:02.123Z,9.40
2022-11-29T00:58:29.326Z,8.70
2022-11-29T01:00:56.225Z,9.23
2022-11-29T01:03:23.584Z,11.00
2022-11-29T01:05:50.391Z,9.15
2022-11-29T01:08:17.377Z,8.73
2022-11-29T01:10:44.227Z,8.10
2022-11-29T01:13:11.771Z,8.60
2022-11-29T01:15:38.375Z,8.15
2022-11-29T01:18:05.002Z,9.00
2022-11-29T01:20:31.514Z,9.57
2022-11-29T01:22:58.336Z,9.38
2022-11-29T01:25:24.897Z,8.95
2022-11-29T01:27:51.416Z,9.38
2022-11-29T01:30:17.853Z,10.52
2022-11-29T01:32:44.307Z,7.22
2022-11-29T01:35:10.847Z,9.68
2022-11-29T01:37:37.378Z,7.72
2022-11-29T01:40:04.125Z,7.50
2022-11-29T01:42:30.535Z,6.28
2022-11-29T01:45:08.171Z,7.70
2022-11-29T01:47:41.917Z,7.88
2022-11-29T01:52:35.459Z,6.07
2022-11-29T01:55:04.439Z,11.40
2022-11-29T01:57:33.880Z,6.22
2022-11-29T02:00:06.441Z,6.28
2022-11-29T02:02:45.518Z,7.80
2022-11-29T02:05:15.105Z,6.95
2022-11-29T02:07:45.761Z,6.78
2022-11-29T02:10:13.911Z,7.40
2022-11-29T02:12:56.274Z,6.45
2022-11-29T02:15:33.287Z,6.07
2022-11-29T02:18:05.076Z,6.28
2022-11-29T02:20:59.293Z,5.55
2022-11-29T02:26:13.352Z,7.63
2022-11-29T02:28:46.212Z,6.75
2022-11-29T02:31:44.247Z,7.25
2022-11-29T02:34:15.195Z,6.63
2022-11-29T02:37:08.591Z,6.80
2022-11-29T02:39:56.501Z,8.05
2022-11-29T02:42:56.027Z,7.35
2022-11-29T02:45:44.261Z,6.38
2022-11-29T02:48:28.969Z,8.85
2022-11-29T02:51:09.713Z,9.02
2022-11-29T02:53:47.399Z,9.80
2022-11-29T02:56:32.496Z,11.48
2022-11-29T02:59:12.283Z,8.85
2022-11-29T03:01:48.642Z,8.60
2022-11-29T03:04:30.269Z,10.48
2022-11-29T03:07:13.565Z,7.85
2022-11-29T03:09:49.388Z,8.30
2022-11-29T03:12:31.282Z,9.90
2022-11-29T03:15:13.755Z,8.13
2022-11-29T03:18:01.792Z,8.70
2022-11-29T03:21:03.728Z,9.48
2022-11-29T03:23:39.068Z,9.43
2022-11-29T03:26:10.607Z,8.95
2022-11-29T03:28:43.466Z,6.45
2022-11-29T03:31:31.855Z,8.38
2022-11-29T03:34:30.504Z,8.13
2022-11-29T03:37:13.507Z,7.63
2022-11-29T03:39:59.657Z,7.03
2022-11-29T03:42:38.355Z,6.78
2022-11-29T03:45:26.039Z,8.23
2022-11-29T03:48:07.484Z,9.23
2022-11-29T03:50:39.020Z,9.68
2022-11-29T03:53:28.379Z,9.88
2022-11-29T03:55:59.805Z,9.65
2022-11-29T03:58:56.537Z,10.00
2022-11-29T04:02:00.032Z,9.38
2022-11-29T04:05:01.761Z,9.13
2022-11-29T04:07:55.648Z,10.10
2022-11-29T04:10:24.776Z,10.73
2022-11-29T04:13:05.837Z,8.27
2022-11-29T04:16:09.909Z,12.43
2022-11-29T04:18:54.772Z,8.45
2022-11-29T04:21:49.697Z,9.20
2022-11-29T04:24:50.298Z,9.55
2022-11-29T04:27:25.937Z,10.73
2022-11-29T04:30:03.543Z,11.43
2022-11-29T04:32:53.997Z,9.25
2022-11-29T04:35:30.437Z,9.77
2022-11-29T04:38:33.289Z,12.07
2022-11-29T04:41:26.733Z,10.18
2022-11-29T04:44:25.170Z,12.30
2022-11-29T04:47:06.480Z,10.15
2022-11-29T04:49:58.205Z,10.32
2022-11-29T04:52:36.678Z,10.73
2022-11-29T04:55:37.130Z,10.50
2022-11-29T04:58:18.201Z,10.57
2022-11-29T05:01:00.430Z,12.15
2022-11-29T05:03:57.535Z,9.38
2022-11-29T05:06:36.021Z,9.90
2022-11-29T05:09:14.259Z,12.52
2022-11-29T05:12:28.275Z,11.50
2022-11-29T05:15:28.691Z,10.13
2022-11-29T05:18:10.300Z,11.30
2022-11-29T05:21:05.064Z,14.00
2022-11-29T05:23:47.897Z,13.27
2022-11-29T05:26:40.547Z,10.60
2022-11-29T05:29:24.454Z,10.90
2022-11-29T05:32:16.762Z,12.50
2022-11-29T05:35:02.399Z,11.02
2022-11-29T05:37:51.950Z,12.18
2022-11-29T05:40:30.842Z,12.98
2022-11-29T05:43:16.610Z,12.57
2022-11-29T05:46:02.601Z,13.25
2022-11-29T05:48:45.037Z,14.18
2022-11-29T05:51:23.067Z,12.80
2022-11-29T05:54:08.053Z,11.65
2022-11-29T05:56:47.250Z,11.30
2022-11-29T05:59:20.691Z,13.82
2022-11-29T06:01:59.577Z,13.82
2022-11-29T06:05:04.054Z,14.80
2022-11-29T06:07:40.675Z,14.30
2022-11-29T06:10:17.624Z,13.82
2022-11-29T06:13:18.749Z,16.45
2022-11-29T06:15:57.789Z,12.93
2022-11-29T06:18:55.575Z,20.35
2022-11-29T06:22:00.170Z,18.75
2022-11-29T06:27:21.777Z,11.65
2022-11-29T06:30:09.261Z,14.75
2022-11-29T06:32:40.176Z,15.05
2022-11-29T06:35:48.366Z,17.17
2022-11-29T06:38:24.600Z,15.40
2022-11-29T06:40:51.458Z,16.38
2022-11-29T06:43:18.293Z,11.82
2022-11-29T06:45:56.000Z,14.15
2022-11-29T06:48:26.077Z,13.98
2022-11-29T06:51:31.054Z,13.75
2022-11-29T06:54:08.695Z,15.45
2022-11-29T06:56:48.454Z,15.80
2022-11-29T06:59:30.659Z,12.43
2022-11-29T07:02:04.971Z,12.25
2022-11-29T07:04:53.364Z,12.00
2022-11-29T07:07:21.947Z,11.73
2022-11-29T07:09:51.404Z,17.23
2022-11-29T07:12:18.335Z,16.90
2022-11-29T07:14:45.332Z,11.95
2022-11-29T07:17:25.763Z,13.05
2022-11-29T07:20:08.085Z,13.80
2022-11-29T07:22:54.250Z,14.02
2022-11-29T07:25:29.248Z,15.13
2022-11-29T07:28:14.491Z,14.57
2022-11-29T07:30:53.285Z,14.95
2022-11-29T07:33:42.010Z,12.93
2022-11-29T07:36:18.849Z,14.15
2022-11-29T07:38:51.344Z,13.18
2022-11-29T07:41:40.956Z,12.13
2022-11-29T07:44:30.271Z,14.13
2022-11-29T07:46:56.688Z,14.95
2022-11-29T07:49:23.136Z,28.25
2022-11-29T07:51:49.647Z,17.85
2022-11-29T07:54:18.608Z,19.85
2022-11-29T07:56:45.030Z,14.18
2022-11-29T07:59:12.908Z,16.15
2022-11-29T08:01:40.012Z,13.48
2022-11-29T08:04:07.380Z,13.82
2022-11-29T08:06:34.197Z,20.33
2022-11-29T08:09:01.139Z,15.20
2022-11-29T08:11:28.430Z,17.80
2022-11-29T08:13:59.757Z,13.20
2022-11-29T08:16:26.809Z,12.80
2022-11-29T08:18:53.280Z,13.68
2022-11-29T08:21:19.783Z,13.15
2022-11-29T08:23:50.413Z,17.00
2022-11-29T08:26:18.248Z,12.27
2022-11-29T08:28:45.002Z,14.50
2022-11-29T08:31:13.125Z,16.02
2022-11-29T08:33:42.436Z,13.52
2022-11-29T08:36:13.944Z,12.00
2022-11-29T08:38:40.646Z,11.23
2022-11-29T08:41:12.832Z,18.88
2022-11-29T08:43:39.722Z,11.48
2022-11-29T08:46:06.329Z,12.02
2022-11-29T08:48:32.809Z,11.70
2022-11-29T08:50:59.620Z,13.40
2022-11-29T08:53:41.324Z,11.38
2022-11-29T08:59:05.595Z,13.20
2022-11-29T09:01:32.019Z,14.05
2022-11-29T09:04:05.043Z,12.23
2022-11-29T09:06:38.759Z,13.82
2022-11-29T09:11:34.012Z,11.73
2022-11-29T09:14:04.209Z,12.85
2022-11-29T09:16:34.589Z,12.77
2022-11-29T09:19:01.515Z,13.90
2022-11-29T09:21:30.246Z,11.80
2022-11-29T09:23:59.996Z,11.82
2022-11-29T09:26:32.014Z,11.27
2022-11-29T09:29:01.186Z,14.82
2022-11-29T09:31:29.164Z,11.57
2022-11-29T09:33:55.922Z,11.02
2022-11-29T09:36:28.102Z,11.98
2022-11-29T09:38:55.555Z,11.68
2022-11-29T09:41:48.510Z,13.63
2022-11-29T09:44:37.637Z,13.73
2022-11-29T09:47:28.591Z,14.77
2022-11-29T09:50:11.983Z,12.98
2022-11-29T09:52:49.179Z,14.45
2022-11-29T09:55:43.219Z,14.63
2022-11-29T09:58:15.411Z,12.82
2022-11-29T10:00:48.523Z,18.83
2022-11-29T10:03:25.440Z,14.50
2022-11-29T10:05:59.868Z,13.40
2022-11-29T10:08:29.247Z,14.95
2022-11-29T10:11:05.170Z,13.35
2022-11-29T10:13:35.035Z,14.13
2022-11-29T10:16:19.220Z,15.15
2022-11-29T10:18:55.866Z,11.43
2022-11-29T10:21:27.944Z,12.88
2022-11-29T10:24:01.760Z,12.50
2022-11-29T10:26:32.104Z,14.60
2022-11-29T10:29:01.625Z,19.85
2022-11-29T10:31:39.207Z,19.80
2022-11-29T10:34:23.908Z,15.65
2022-11-29T10:36:53.787Z,24.02
2022-11-29T10:39:31.002Z,15.85
2022-11-29T10:42:01.538Z,15.68
2022-11-29T10:44:28.648Z,14.15
2022-11-29T10:46:55.996Z,12.13
2022-11-29T10:49:27.281Z,14.55
2022-11-29T10:51:53.694Z,16.38
2022-11-29T10:54:39.996Z,15.02
2022-11-29T10:57:14.815Z,12.77
2022-11-29T10:59:50.333Z,16.88
2022-11-29T11:02:22.479Z,69.50
2022-11-29T11:04:50.227Z,20.33
2022-11-29T11:07:28.746Z,22.15
2022-11-29T11:09:57.139Z,15.80
2022-11-29T11:12:30.158Z,18.13
2022-11-29T11:15:30.250Z,20.42
2022-11-29T11:18:01.138Z,19.90
2022-11-29T11:20:30.434Z,20.33
2022-11-29T11:23:06.846Z,19.08
2022-11-29T11:25:42.299Z,17.27
2022-11-29T11:28:20.845Z,18.70
2022-11-29T11:31:08.356Z,30.13
2022-11-29T11:33:38.134Z,24.23
2022-11-29T11:36:15.002Z,16.15
2022-11-29T11:38:59.157Z,14.82
2022-11-29T11:44:46.477Z,14.88
2022-11-29T11:47:27.208Z,13.27
2022-11-29T11:50:04.412Z,17.83
2022-11-29T11:52:40.219Z,15.07
2022-11-29T11:55:27.938Z,17.40
2022-11-29T11:58:10.127Z,16.45
2022-11-29T12:01:02.351Z,13.52
2022-11-29T12:03:38.212Z,13.50
2022-11-29T12:06:18.300Z,17.75
2022-11-29T12:08:48.378Z,21.67
2022-11-29T12:11:17.389Z,14.80
2022-11-29T12:13:49.147Z,14.63
2022-11-29T12:16:27.430Z,12.85
2022-11-29T12:19:17.683Z,15.13
2022-11-29T12:21:52.417Z,14.15
2022-11-29T12:24:23.351Z,14.98
2022-11-29T12:26:59.148Z,15.40
2022-11-29T12:29:29.180Z,14.60
2022-11-29T12:32:10.766Z,15.15
2022-11-29T12:34:58.602Z,15.68
2022-11-29T12:37:37.111Z,12.48
2022-11-29T12:40:06.162Z,16.70
2022-11-29T12:42:47.558Z,15.07
2022-11-29T12:45:34.519Z,16.88
2022-11-29T12:48:31.722Z,16.42
2022-11-29T12:51:27.658Z,17.48
2022-11-29T12:54:24.631Z,23.52
2022-11-29T12:57:23.454Z,15.57
2022-11-29T13:00:20.563Z,15.60
2022-11-29T13:02:58.970Z,17.95
2022-11-29T13:05:41.339Z,15.88
2022-11-29T13:08:32.602Z,17.10
2022-11-29T13:11:17.494Z,16.85
2022-11-29T13:13:48.300Z,17.73
2022-11-29T13:16:42.575Z,18.85
2022-11-29T13:22:18.726Z,14.85
2022-11-29T13:24:53.409Z,21.45
2022-11-29T13:27:28.496Z,18.30
2022-11-29T13:29:56.141Z,14.35
2022-11-29T13:32:31.578Z,16.52
2022-11-29T13:35:04.784Z,14.55
2022-11-29T13:37:43.422Z,14.68
2022-11-29T13:40:28.544Z,19.17
2022-11-29T13:43:18.540Z,15.25
2022-11-29T13:45:55.706Z,17.85
2022-11-29T13:48:37.077Z,15.88
2022-11-29T13:51:25.831Z,16.23
2022-11-29T13:53:54.962Z,15.70
2022-11-29T13:56:47.656Z,17.15
2022-11-29T13:59:28.871Z,15.30
2022-11-29T14:01:57.006Z,19.42
2022-11-29T14:04:23.486Z,16.25
2022-11-29T14:07:01.512Z,15.40
2022-11-29T14:09:59.529Z,18.80
2022-11-29T14:13:02.023Z,16.30
2022-11-29T14:15:32.625Z,16.63
2022-11-29T14:18:03.200Z,15.60
2022-11-29T14:20:29.574Z,16.25
2022-11-29T14:23:04.897Z,19.60
2022-11-29T14:26:12.729Z,17.30
2022-11-29T14:28:39.724Z,27.05
2022-11-29T14:31:07.801Z,22.55
2022-11-29T14:33:37.373Z,16.75
2022-11-29T14:36:17.862Z,28.63
2022-11-29T14:39:04.363Z,18.80
2022-11-29T14:41:50.773Z,19.50
2022-11-29T14:44:24.680Z,19.52
2022-11-29T14:47:24.123Z,21.75
2022-11-29T14:49:52.995Z,22.38
2022-11-29T14:52:33.633Z,25.48
2022-11-29T14:55:03.085Z,17.42
2022-11-29T14:57:48.038Z,23.33
2022-11-29T15:00:16.903Z,19.20
2022-11-29T15:03:15.670Z,18.63
2022-11-29T15:05:50.817Z,19.92
2022-11-29T15:08:30.163Z,22.60
2022-11-29T15:11:05.797Z,19.02
2022-11-29T15:13:35.277Z,20.05
2022-11-29T15:16:25.486Z,15.38
2022-11-29T15:19:27.205Z,15.93
2022-11-29T15:22:12.607Z,20.05
2022-11-29T15:25:03.280Z,23.25
2022-11-29T15:27:29.677Z,24.58
2022-11-29T15:29:56.417Z,22.13
2022-11-29T15:32:32.553Z,21.40
2022-11-29T15:34:59.518Z,19.45
2022-11-29T15:37:31.688Z,18.98
2022-11-29T15:40:16.990Z,23.38
2022-11-29T15:42:57.970Z,20.33
2022-11-29T15:45:27.265Z,17.17
2022-11-29T15:47:54.708Z,20.17
2022-11-29T15:50:33.009Z,17.85
2022-11-29T15:53:06.669Z,16.98
2022-11-29T15:58:08.507Z,15.32
2022-11-29T16:00:36.494Z,21.35
2022-11-29T16:03:05.611Z,22.13
2022-11-29T16:05:36.716Z,17.80
2022-11-29T16:08:20.290Z,22.42
2022-11-29T16:10:53.182Z,22.17
2022-11-29T16:13:25.898Z,26.17
2022-11-29T16:16:16.634Z,24.53
2022-11-29T16:18:46.317Z,20.08
2022-11-29T16:21:30.683Z,22.13
2022-11-29T16:23:58.151Z,22.67
2022-11-29T16:26:32.017Z,23.23
2022-11-29T16:28:58.444Z,25.08
2022-11-29T16:31:33.137Z,19.77
2022-11-29T16:34:15.124Z,21.50
2022-11-29T16:36:41.537Z,24.65
2022-11-29T16:39:21.703Z,27.75
2022-11-29T16:42:05.763Z,21.77
2022-11-29T16:47:18.743Z,19.80
2022-11-29T16:49:45.247Z,18.70
2022-11-29T16:52:25.260Z,20.55
2022-11-29T16:54:51.964Z,21.77
2022-11-29T16:57:18.703Z,22.17
2022-11-29T16:59:46.519Z,22.80
2022-11-29T17:02:14.557Z,23.00
2022-11-29T17:04:41.886Z,22.20
2022-11-29T17:07:15.283Z,21.30
2022-11-29T17:09:42.001Z,24.85
2022-11-29T17:12:13.653Z,17.15
2022-11-29T17:14:40.079Z,32.55
2022-11-29T17:17:06.724Z,24.17
2022-11-29T17:19:33.113Z,25.05
2022-11-29T17:21:59.511Z,21.20
2022-11-29T17:24:25.979Z,25.27
2022-11-29T17:26:52.431Z,26.95
2022-11-29T17:29:19.005Z,27.58
2022-11-29T17:31:46.721Z,17.30
2022-11-29T17:34:13.674Z,19.17
2022-11-29T17:36:40.904Z,18.67
2022-11-29T17:39:07.954Z,25.67
2022-11-29T17:41:34.462Z,21.00
2022-11-29T17:44:01.083Z,18.85
2022-11-29T17:46:27.519Z,19.30
2022-11-29T17:48:54.725Z,17.83
2022-11-29T17:51:50.686Z,16.90
2022-11-29T17:54:10.572Z,17.23
2022-11-29T17:56:37.003Z,19.38
2022-11-29T17:59:04.789Z,21.10
2022-11-29T18:01:34.041Z,21.02
2022-11-29T18:04:02.551Z,19.42
2022-11-29T18:06:33.507Z,18.60
2022-11-29T18:09:01.380Z,21.58
2022-11-29T18:11:43.005Z,22.95
2022-11-29T18:14:13.186Z,18.88
2022-11-29T18:16:39.950Z,21.33
2022-11-29T18:19:12.681Z,25.67
2022-11-29T18:21:39.116Z,23.90
2022-11-29T18:24:06.812Z,21.63
2022-11-29T18:26:35.296Z,26.33
2022-11-29T18:29:02.037Z,31.48
2022-11-29T18:31:31.177Z,26.58
2022-11-29T18:34:00.294Z,23.77
2022-11-29T18:36:29.249Z,26.95
2022-11-29T18:39:00.520Z,22.63
2022-11-29T18:41:29.213Z,22.08
2022-11-29T18:44:07.533Z,28.60
2022-11-29T18:46:36.841Z,25.10
2022-11-29T18:49:08.397Z,23.38
2022-11-29T18:51:36.403Z,28.38
2022-11-29T18:54:03.709Z,31.83
2022-11-29T18:56:32.037Z,28.27
2022-11-29T18:58:58.878Z,27.25
2022-11-29T19:01:28.324Z,25.52
2022-11-29T19:03:57.091Z,22.55
2022-11-29T19:06:32.807Z,23.38
2022-11-29T19:09:05.068Z,26.30
2022-11-29T19:11:33.176Z,24.65
2022-11-29T19:14:03.185Z,22.02
2022-11-29T19:16:33.017Z,27.00
2022-11-29T19:19:00.414Z,22.83
2022-11-29T19:21:29.025Z,24.50
2022-11-29T19:24:00.744Z,27.15
2022-11-29T19:26:29.327Z,26.92
2022-11-29T19:28:56.692Z,27.88
2022-11-29T19:31:25.184Z,29.63
2022-11-29T19:33:52.747Z,27.77
2022-11-29T19:36:27.391Z,24.92
2022-11-29T19:38:54.860Z,29.80
2022-11-29T19:41:27.467Z,31.63
2022-11-29T19:43:55.778Z,28.35
2022-11-29T19:46:24.640Z,41.35
2022-11-29T19:48:56.152Z,27.48
2022-11-29T19:51:23.749Z,27.23
2022-11-29T19:53:58.832Z,27.50
2022-11-29T19:56:25.630Z,28.00
2022-11-29T19:58:52.574Z,27.65
2022-11-29T20:01:25.185Z,28.45
2022-11-29T20:03:52.405Z,27.87
2022-11-29T20:06:19.660Z,27.63
2022-11-29T20:08:46.198Z,30.10
2022-11-29T20:11:14.061Z,31.55
2022-11-29T20:13:42.164Z,31.13
2022-11-29T20:16:14.840Z,31.02
2022-11-29T20:18:48.964Z,28.50
2022-11-29T20:21:23.469Z,27.33
2022-11-29T20:23:55.560Z,32.40
2022-11-29T20:26:23.096Z,29.55
2022-11-29T20:28:49.620Z,30.48
2022-11-29T20:31:18.829Z,31.30
2022-11-29T20:33:46.528Z,27.88
2022-11-29T20:36:34.275Z,25.08
2022-11-29T20:39:16.789Z,26.65
2022-11-29T20:41:56.258Z,25.58
2022-11-29T20:44:38.129Z,23.67
2022-11-29T20:47:17.689Z,27.48
2022-11-29T20:49:44.922Z,22.70
2022-11-29T20:52:37.606Z,26.52
2022-11-29T20:55:05.236Z,26.63
2022-11-29T20:57:31.739Z,24.02
2022-11-29T20:59:58.463Z,27.85
2022-11-29T21:02:25.035Z,24.77
2022-11-29T21:04:52.479Z,27.85
2022-11-29T21:07:19.077Z,32.22
2022-11-29T21:09:45.811Z,31.42
2022-11-29T21:12:12.819Z,29.20
2022-11-29T21:14:39.486Z,28.52
2022-11-29T21:17:06.147Z,30.63
2022-11-29T21:19:32.864Z,27.13
2022-11-29T21:22:19.788Z,25.83
2022-11-29T21:25:01.560Z,21.77
2022-11-29T21:27:32.118Z,20.95
2022-11-29T21:29:59.061Z,21.70
2022-11-29T21:32:27.439Z,22.40
2022-11-29T21:34:53.844Z,23.90
2022-11-29T21:37:22.577Z,21.95
2022-11-29T21:39:51.447Z,22.85
2022-11-29T21:42:18.135Z,29.85
2022-11-29T21:44:45.137Z,28.23
2022-11-29T21:47:11.952Z,24.83
2022-11-29T21:49:38.689Z,29.23
2022-11-29T21:52:06.357Z,28.13
2022-11-29T21:54:33.547Z,27.92
2022-11-29T21:56:59.968Z,26.25
2022-11-29T21:59:26.420Z,25.52
2022-11-29T22:01:54.320Z,29.45
2022-11-29T22:04:21.448Z,25.63
2022-11-29T22:06:47.913Z,20.63
2022-11-29T22:09:14.910Z,21.20
2022-11-29T22:11:41.366Z,21.10
2022-11-29T22:14:17.860Z,26.50
2022-11-29T22:16:56.283Z,19.38
2022-11-29T22:19:26.673Z,24.15
2022-11-29T22:21:55.785Z,23.05
2022-11-29T22:24:24.822Z,21.90
2022-11-29T22:26:52.694Z,28.15
2022-11-29T22:29:20.201Z,23.70
2022-11-29T22:31:48.974Z,24.75
2022-11-29T22:34:15.991Z,23.42
2022-11-29T22:36:42.715Z,23.48
2022-11-29T22:39:09.453Z,24.08
2022-11-29T22:41:37.784Z,27.23
2022-11-29T22:44:05.269Z,24.77
2022-11-29T22:46:32.145Z,23.55
2022-11-29T22:49:00.650Z,27.63
2022-11-29T22:51:34.976Z,27.50
2022-11-29T22:54:03.869Z,25.10
2022-11-29T22:56:33.158Z,28.23
2022-11-29T22:59:01.290Z,31.55
2022-11-29T23:01:30.183Z,33.67
2022-11-29T23:03:58.767Z,29.38
2022-11-29T23:06:27.449Z,24.80
2022-11-29T23:08:56.167Z,26.35
2022-11-29T23:11:26.785Z,28.40
2022-11-29T23:13:53.950Z,27.73
2022-11-29T23:16:23.149Z,23.98
2022-11-29T23:18:49.971Z,27.75
2022-11-29T23:21:22.590Z,23.63
2022-11-29T23:23:55.861Z,22.80
2022-11-29T23:26:29.863Z,20.80
2022-11-29T23:28:57.160Z,27.02
2022-11-29T23:31:24.182Z,26.77
2022-11-29T23:33:50.985Z,24.27
2022-11-29T23:36:17.854Z,22.40
2022-11-29T23:38:44.352Z,28.55
2022-11-29T23:41:11.951Z,25.88
2022-11-29T23:43:40.686Z,25.45
2022-11-29T23:46:14.951Z,25.55
2022-11-29T23:48:41.938Z,22.92
2022-11-29T23:51:08.946Z,22.73
2022-11-29T23:53:35.355Z,25.75
2022-11-29T23:56:04.306Z,28.15
2022-11-29T23:58:32.104Z,27.90
